createdAt,value
2022-08-25T00:00:49.550Z,85.58
2022-08-25T00:01:56.050Z,85.42
2022-08-25T00:02:58.106Z,85.44
2022-08-25T00:04:02.040Z,85.29
2022-08-25T00:05:04.993Z,85.27
2022-08-25T00:06:08.616Z,85.13
2022-08-25T00:07:11.343Z,85.21
2022-08-25T00:08:13.142Z,85.47
2022-08-25T00:09:16.476Z,85.50
2022-08-25T00:10:18.321Z,85.76
2022-08-25T00:11:22.031Z,85.69
2022-08-25T00:12:23.825Z,85.18
2022-08-25T00:13:25.746Z,85.27
2022-08-25T00:14:30.214Z,85.47
2022-08-25T00:15:32.607Z,85.39
2022-08-25T00:16:35.050Z,85.68
2022-08-25T00:17:36.826Z,85.82
2022-08-25T00:18:39.652Z,85.73
2022-08-25T00:19:41.488Z,85.88
2022-08-25T00:20:43.341Z,85.90
2022-08-25T00:21:51.464Z,85.84
2022-08-25T00:22:53.321Z,86.47
2022-08-25T00:23:55.217Z,87.47
2022-08-25T00:24:57.028Z,87.80
2022-08-25T00:25:59.050Z,87.81
2022-08-25T00:27:02.079Z,87.57
2022-08-25T00:28:08.367Z,87.52
2022-08-25T00:29:10.886Z,87.21
2022-08-25T00:30:15.942Z,87.21
2022-08-25T00:31:20.282Z,87.11
2022-08-25T00:32:22.240Z,87.06
2022-08-25T00:33:24.453Z,86.70
2022-08-25T00:34:28.574Z,86.61
2022-08-25T00:35:30.500Z,86.92
2022-08-25T00:36:32.301Z,86.82
2022-08-25T00:37:34.130Z,86.78
2022-08-25T00:38:36.763Z,86.72
2022-08-25T00:39:39.955Z,86.65
2022-08-25T00:40:42.540Z,86.78
2022-08-25T00:41:44.497Z,86.73
2022-08-25T00:42:46.965Z,86.71
2022-08-25T00:43:53.876Z,86.67
2022-08-25T00:44:56.424Z,86.64
2022-08-25T00:45:58.454Z,86.86
2022-08-25T00:47:01.556Z,86.77
2022-08-25T00:48:03.830Z,86.94
2022-08-25T00:49:25.115Z,87.08
2022-08-25T00:50:28.390Z,86.90
2022-08-25T00:51:37.412Z,86.96
2022-08-25T00:52:43.377Z,86.61
2022-08-25T00:53:45.410Z,87.23
2022-08-25T00:54:49.969Z,87.22
2022-08-25T00:55:51.881Z,87.48
2022-08-25T00:56:54.204Z,87.41
2022-08-25T00:57:56.652Z,87.32
2022-08-25T00:59:00.091Z,87.34
2022-08-25T01:00:04.513Z,87.07
2022-08-25T01:01:06.537Z,86.88
2022-08-25T01:02:10.257Z,86.68
2022-08-25T01:03:16.330Z,87.07
2022-08-25T01:04:18.607Z,87.09
2022-08-25T01:05:21.619Z,86.68
2022-08-25T01:06:24.047Z,86.57
2022-08-25T01:07:26.011Z,86.66
2022-08-25T01:08:29.669Z,86.60
2022-08-25T01:09:34.207Z,86.48
2022-08-25T01:10:36.923Z,86.42
2022-08-25T01:11:38.782Z,86.68
2022-08-25T01:12:40.916Z,87.31
2022-08-25T01:13:48.173Z,87.30
2022-08-25T01:14:51.710Z,86.93
2022-08-25T01:15:55.370Z,87.15
2022-08-25T01:16:58.414Z,86.95
2022-08-25T01:18:01.352Z,86.92
2022-08-25T01:19:03.585Z,87.07
2022-08-25T01:20:05.506Z,87.22
2022-08-25T01:21:07.330Z,87.38
2022-08-25T01:22:10.846Z,87.27
2022-08-25T01:23:12.707Z,87.16
2022-08-25T01:24:34.744Z,87.17
2022-08-25T01:25:48.595Z,86.89
2022-08-25T01:26:50.442Z,86.56
2022-08-25T01:27:52.302Z,86.72
2022-08-25T01:29:13.343Z,86.79
2022-08-25T01:30:15.515Z,86.69
2022-08-25T01:31:24.046Z,87.10
2022-08-25T01:32:26.805Z,87.27
2022-08-25T01:33:28.591Z,87.48
2022-08-25T01:34:31.922Z,87.26
2022-08-25T01:35:34.353Z,87.56
2022-08-25T01:36:36.840Z,87.37
2022-08-25T01:37:38.730Z,87.11
2022-08-25T01:38:40.518Z,87.27
2022-08-25T01:39:43.204Z,87.43
2022-08-25T01:40:45.128Z,86.85
2022-08-25T01:41:51.461Z,86.99
2022-08-25T01:43:08.557Z,87.07
2022-08-25T01:44:16.484Z,86.99
2022-08-25T01:45:19.139Z,87.19
2022-08-25T01:46:21.092Z,87.02
2022-08-25T01:47:24.197Z,87.08
2022-08-25T01:48:27.009Z,87.32
2022-08-25T01:49:28.917Z,87.42
2022-08-25T01:50:31.346Z,87.53
2022-08-25T01:51:35.291Z,87.48
2022-08-25T01:52:46.527Z,87.69
2022-08-25T01:53:48.313Z,87.51
2022-08-25T01:54:50.199Z,87.62
2022-08-25T01:55:52.477Z,87.46
2022-08-25T01:56:54.280Z,87.46
2022-08-25T01:57:56.628Z,87.27
2022-08-25T01:58:58.413Z,87.32
2022-08-25T02:00:00.942Z,87.52
2022-08-25T02:01:05.837Z,87.80
2022-08-25T02:02:08.041Z,87.38
2022-08-25T02:03:15.750Z,87.33
2022-08-25T02:04:20.848Z,87.46
2022-08-25T02:05:23.985Z,87.43
2022-08-25T02:06:30.222Z,87.59
2022-08-25T02:07:32.752Z,87.62
2022-08-25T02:08:35.275Z,87.88
2022-08-25T02:09:38.072Z,87.98
2022-08-25T02:10:40.717Z,87.99
2022-08-25T02:11:43.807Z,87.64
2022-08-25T02:12:45.587Z,87.76
2022-08-25T02:13:47.872Z,87.56
2022-08-25T02:14:49.814Z,87.32
2022-08-25T02:15:53.233Z,87.52
2022-08-25T02:16:56.014Z,87.71
2022-08-25T02:17:58.152Z,87.44
2022-08-25T02:18:59.984Z,87.40
2022-08-25T02:20:01.799Z,87.68
2022-08-25T02:21:03.941Z,87.49
2022-08-25T02:22:05.877Z,87.59
2022-08-25T02:23:07.696Z,87.76
2022-08-25T02:24:09.803Z,87.33
2022-08-25T02:25:11.705Z,86.93
2022-08-25T02:26:17.069Z,87.35
2022-08-25T02:27:18.911Z,87.28
2022-08-25T02:28:21.662Z,87.88
2022-08-25T02:29:23.535Z,88.30
2022-08-25T02:30:25.468Z,88.28
2022-08-25T02:31:27.347Z,88.53
2022-08-25T02:32:29.264Z,88.49
2022-08-25T02:33:31.182Z,88.28
2022-08-25T02:34:33.039Z,88.18
2022-08-25T02:35:35.041Z,88.25
2022-08-25T02:36:38.233Z,88.17
2022-08-25T02:37:40.079Z,88.00
2022-08-25T02:38:42.020Z,88.08
2022-08-25T02:39:43.781Z,87.82
2022-08-25T02:40:45.643Z,87.54
2022-08-25T02:41:47.526Z,87.40
2022-08-25T02:42:50.248Z,87.61
2022-08-25T02:43:52.216Z,87.42
2022-08-25T02:44:54.323Z,87.27
2022-08-25T02:45:56.852Z,87.32
2022-08-25T02:46:58.883Z,86.98
2022-08-25T02:48:00.867Z,87.14
2022-08-25T02:49:03.231Z,87.42
2022-08-25T02:50:06.027Z,87.28
2022-08-25T02:51:09.075Z,87.51
2022-08-25T02:52:10.864Z,87.40
2022-08-25T02:53:12.692Z,87.34
2022-08-25T02:54:15.145Z,87.54
2022-08-25T02:55:17.218Z,88.01
2022-08-25T02:56:19.307Z,88.08
2022-08-25T02:57:21.632Z,88.03
2022-08-25T02:58:24.050Z,87.92
2022-08-25T02:59:25.863Z,88.08
2022-08-25T03:00:27.867Z,88.22
2022-08-25T03:01:30.288Z,87.78
2022-08-25T03:02:32.632Z,87.73
2022-08-25T03:03:39.203Z,87.89
2022-08-25T03:04:41.491Z,87.97
2022-08-25T03:05:43.371Z,87.82
2022-08-25T03:06:45.466Z,87.78
2022-08-25T03:07:47.304Z,88.06
2022-08-25T03:08:49.902Z,87.97
2022-08-25T03:09:51.726Z,87.97
2022-08-25T03:10:53.548Z,87.85
2022-08-25T03:11:55.321Z,88.06
2022-08-25T03:12:57.069Z,88.14
2022-08-25T03:13:58.904Z,87.86
2022-08-25T03:15:00.709Z,87.86
2022-08-25T03:16:03.849Z,87.82
2022-08-25T03:17:08.594Z,87.71
2022-08-25T03:18:12.128Z,87.55
2022-08-25T03:19:17.217Z,87.44
2022-08-25T03:20:19.900Z,87.47
2022-08-25T03:21:21.660Z,87.50
2022-08-25T03:22:23.427Z,87.22
2022-08-25T03:23:25.367Z,87.22
2022-08-25T03:24:27.358Z,86.93
2022-08-25T03:25:47.975Z,87.06
2022-08-25T03:26:56.164Z,87.23
2022-08-25T03:27:58.157Z,86.99
2022-08-25T03:29:01.189Z,87.08
2022-08-25T03:30:03.672Z,87.22
2022-08-25T03:31:05.717Z,87.09
2022-08-25T03:32:07.896Z,86.92
2022-08-25T03:33:09.772Z,87.11
2022-08-25T03:34:12.917Z,87.15
2022-08-25T03:35:15.198Z,87.49
2022-08-25T03:36:17.035Z,87.45
2022-08-25T03:37:19.592Z,87.75
2022-08-25T03:38:21.936Z,87.72
2022-08-25T03:39:24.765Z,87.61
2022-08-25T03:40:26.803Z,87.64
2022-08-25T03:41:29.840Z,87.73
2022-08-25T03:42:31.649Z,88.39
2022-08-25T03:43:33.487Z,88.44
2022-08-25T03:44:35.252Z,88.33
2022-08-25T03:45:40.744Z,88.36
2022-08-25T03:46:50.242Z,88.19
2022-08-25T03:47:52.909Z,87.98
2022-08-25T03:48:55.181Z,87.99
2022-08-25T03:49:57.000Z,87.79
2022-08-25T03:50:58.924Z,87.84
2022-08-25T03:52:03.513Z,87.83
2022-08-25T03:53:05.385Z,87.73
2022-08-25T03:54:07.372Z,88.02
2022-08-25T03:55:10.731Z,87.94
2022-08-25T03:56:12.602Z,87.94
2022-08-25T03:57:14.565Z,87.75
2022-08-25T03:58:17.313Z,87.92
2022-08-25T03:59:19.508Z,87.60
2022-08-25T04:00:22.347Z,87.42
2022-08-25T04:01:24.753Z,87.59
2022-08-25T04:02:27.023Z,87.33
2022-08-25T04:03:28.821Z,87.27
2022-08-25T04:04:31.327Z,87.24
2022-08-25T04:05:33.215Z,87.48
2022-08-25T04:06:36.086Z,87.64
2022-08-25T04:07:38.513Z,87.55
2022-08-25T04:08:40.319Z,87.62
2022-08-25T04:09:42.102Z,87.80
2022-08-25T04:10:43.908Z,88.00
2022-08-25T04:11:46.400Z,87.79
2022-08-25T04:12:51.279Z,87.62
2022-08-25T04:13:53.740Z,87.49
2022-08-25T04:14:55.613Z,87.59
2022-08-25T04:15:57.474Z,87.72
2022-08-25T04:16:59.399Z,87.53
2022-08-25T04:18:01.539Z,87.37
2022-08-25T04:19:05.212Z,87.40
2022-08-25T04:20:09.093Z,87.45
2022-08-25T04:21:11.413Z,87.41
2022-08-25T04:22:13.370Z,87.58
2022-08-25T04:23:15.273Z,87.79
2022-08-25T04:24:17.153Z,87.85
2022-08-25T04:25:18.976Z,87.75
2022-08-25T04:26:25.627Z,87.98
2022-08-25T04:27:27.551Z,87.96
2022-08-25T04:28:30.148Z,88.20
2022-08-25T04:29:32.847Z,88.03
2022-08-25T04:30:34.753Z,88.10
2022-08-25T04:31:37.251Z,88.14
2022-08-25T04:32:39.348Z,88.09
2022-08-25T04:33:42.087Z,88.25
2022-08-25T04:34:44.078Z,88.18
2022-08-25T04:35:50.073Z,88.06
2022-08-25T04:36:52.667Z,87.88
2022-08-25T04:37:54.691Z,88.05
2022-08-25T04:38:56.817Z,88.16
2022-08-25T04:39:58.654Z,88.20
2022-08-25T04:41:01.717Z,88.18
2022-08-25T04:42:03.673Z,87.93
2022-08-25T04:43:05.458Z,87.74
2022-08-25T04:44:07.445Z,87.80
2022-08-25T04:45:09.528Z,87.59
2022-08-25T04:46:13.298Z,87.49
2022-08-25T04:47:22.400Z,87.43
2022-08-25T04:48:24.365Z,87.69
2022-08-25T04:49:26.365Z,87.41
2022-08-25T04:50:28.265Z,87.56
2022-08-25T04:51:36.086Z,87.58
2022-08-25T04:52:37.901Z,87.87
2022-08-25T04:53:40.257Z,87.78
2022-08-25T04:54:42.844Z,87.98
2022-08-25T04:55:46.297Z,87.79
2022-08-25T04:56:50.864Z,87.76
2022-08-25T04:57:56.456Z,87.93
2022-08-25T04:59:01.942Z,87.80
2022-08-25T05:00:04.814Z,87.84
2022-08-25T05:01:11.603Z,88.08
2022-08-25T05:02:13.393Z,88.05
2022-08-25T05:03:15.293Z,87.88
2022-08-25T05:04:27.897Z,87.94
2022-08-25T05:05:31.410Z,87.89
2022-08-25T05:06:35.797Z,88.14
2022-08-25T05:07:37.757Z,88.35
2022-08-25T05:08:39.965Z,88.65
2022-08-25T05:09:41.810Z,88.41
2022-08-25T05:10:44.225Z,88.58
2022-08-25T05:11:46.075Z,88.78
2022-08-25T05:12:48.779Z,88.90
2022-08-25T05:13:51.853Z,88.79
2022-08-25T05:14:54.391Z,88.71
2022-08-25T05:15:58.295Z,89.17
2022-08-25T05:17:02.379Z,88.81
2022-08-25T05:18:04.267Z,88.60
2022-08-25T05:19:06.431Z,88.72
2022-08-25T05:20:08.602Z,88.43
2022-08-25T05:21:12.398Z,88.62
2022-08-25T05:22:14.218Z,88.80
2022-08-25T05:23:16.211Z,88.41
2022-08-25T05:24:18.050Z,88.35
2022-08-25T05:25:20.014Z,88.44
2022-08-25T05:26:22.205Z,88.31
2022-08-25T05:27:24.239Z,88.16
2022-08-25T05:28:26.178Z,88.05
2022-08-25T05:29:27.938Z,88.05
2022-08-25T05:30:30.216Z,88.06
2022-08-25T05:31:32.696Z,88.13
2022-08-25T05:32:34.846Z,88.46
2022-08-25T05:33:37.104Z,88.32
2022-08-25T05:34:39.022Z,88.35
2022-08-25T05:35:40.796Z,88.48
2022-08-25T05:36:43.893Z,88.41
2022-08-25T05:37:45.879Z,88.42
2022-08-25T05:38:47.725Z,88.39
2022-08-25T05:39:49.644Z,88.39
2022-08-25T05:40:58.447Z,88.36
2022-08-25T05:42:00.361Z,88.53
2022-08-25T05:43:02.104Z,88.40
2022-08-25T05:44:04.196Z,88.39
2022-08-25T05:45:06.743Z,88.54
2022-08-25T05:46:08.707Z,88.83
2022-08-25T05:47:10.530Z,88.64
2022-08-25T05:48:12.287Z,88.61
2022-08-25T05:49:14.122Z,88.54
2022-08-25T05:50:16.922Z,88.52
2022-08-25T05:51:19.987Z,88.51
2022-08-25T05:52:21.948Z,88.44
2022-08-25T05:53:24.228Z,88.42
2022-08-25T05:54:26.042Z,88.57
2022-08-25T05:55:27.906Z,88.48
2022-08-25T05:56:29.825Z,88.31
2022-08-25T05:57:32.794Z,88.51
2022-08-25T05:58:34.673Z,88.55
2022-08-25T05:59:36.429Z,88.33
2022-08-25T06:00:38.736Z,88.18
2022-08-25T06:01:58.986Z,88.33
2022-08-25T06:03:00.829Z,88.02
2022-08-25T06:04:02.902Z,88.20
2022-08-25T06:05:04.853Z,88.17
2022-08-25T06:06:07.494Z,88.05
2022-08-25T06:07:09.615Z,88.24
2022-08-25T06:08:11.510Z,88.28
2022-08-25T06:09:13.230Z,88.39
2022-08-25T06:10:15.905Z,88.22
2022-08-25T06:11:17.700Z,88.25
2022-08-25T06:12:21.562Z,88.04
2022-08-25T06:13:28.843Z,87.80
2022-08-25T06:14:30.857Z,87.96
2022-08-25T06:15:32.789Z,88.12
2022-08-25T06:16:34.829Z,87.84
2022-08-25T06:17:40.919Z,87.84
2022-08-25T06:18:42.732Z,87.73
2022-08-25T06:19:44.886Z,87.94
2022-08-25T06:20:47.577Z,88.03
2022-08-25T06:21:49.908Z,88.04
2022-08-25T06:22:51.778Z,88.04
2022-08-25T06:23:53.574Z,87.93
2022-08-25T06:24:56.075Z,87.84
2022-08-25T06:25:57.865Z,87.90
2022-08-25T06:26:59.733Z,87.92
2022-08-25T06:28:01.557Z,87.90
2022-08-25T06:29:03.707Z,87.87
2022-08-25T06:30:10.533Z,87.85
2022-08-25T06:31:12.994Z,87.77
2022-08-25T06:32:15.146Z,87.69
2022-08-25T06:33:17.009Z,87.65
2022-08-25T06:34:19.539Z,87.53
2022-08-25T06:35:25.612Z,87.64
2022-08-25T06:36:27.379Z,87.71
2022-08-25T06:37:29.367Z,87.38
2022-08-25T06:38:31.296Z,87.54
2022-08-25T06:39:33.104Z,87.65
2022-08-25T06:40:35.023Z,87.62
2022-08-25T06:41:37.342Z,87.51
2022-08-25T06:42:39.324Z,87.38
2022-08-25T06:43:48.017Z,87.64
2022-08-25T06:44:50.904Z,87.36
2022-08-25T06:45:52.698Z,87.28
2022-08-25T06:46:54.475Z,87.38
2022-08-25T06:47:57.964Z,87.81
2022-08-25T06:49:01.043Z,88.28
2022-08-25T06:50:04.216Z,88.12
2022-08-25T06:51:07.361Z,87.97
2022-08-25T06:52:09.414Z,87.75
2022-08-25T06:53:11.285Z,87.64
2022-08-25T06:54:13.598Z,87.44
2022-08-25T06:55:16.234Z,87.46
2022-08-25T06:56:19.263Z,87.42
2022-08-25T06:57:21.318Z,87.50
2022-08-25T06:58:23.171Z,87.57
2022-08-25T06:59:32.239Z,87.29
2022-08-25T07:00:34.461Z,87.53
2022-08-25T07:01:36.527Z,87.42
2022-08-25T07:02:41.053Z,87.46
2022-08-25T07:03:43.598Z,87.63
2022-08-25T07:04:45.575Z,87.52
2022-08-25T07:05:54.740Z,87.30
2022-08-25T07:06:56.474Z,87.07
2022-08-25T07:07:58.269Z,87.24
2022-08-25T07:09:00.298Z,87.02
2022-08-25T07:10:02.514Z,86.99
2022-08-25T07:11:08.503Z,86.98
2022-08-25T07:12:18.342Z,87.06
2022-08-25T07:13:20.116Z,87.00
2022-08-25T07:14:22.575Z,86.68
2022-08-25T07:15:24.403Z,86.69
2022-08-25T07:16:29.753Z,86.80
2022-08-25T07:17:32.853Z,86.48
2022-08-25T07:18:35.868Z,86.67
2022-08-25T07:19:37.819Z,86.85
2022-08-25T07:20:40.357Z,86.56
2022-08-25T07:21:46.023Z,86.75
2022-08-25T07:22:48.889Z,87.27
2022-08-25T07:23:50.996Z,87.18
2022-08-25T07:24:52.869Z,87.12
2022-08-25T07:25:55.179Z,86.98
2022-08-25T07:26:57.108Z,87.15
2022-08-25T07:27:59.210Z,86.75
2022-08-25T07:29:01.172Z,85.94
2022-08-25T07:30:03.013Z,85.91
2022-08-25T07:31:07.060Z,86.26
2022-08-25T07:32:11.931Z,85.76
2022-08-25T07:33:13.921Z,85.56
2022-08-25T07:34:34.845Z,85.83
2022-08-25T07:35:40.935Z,85.77
2022-08-25T07:36:45.998Z,85.82
2022-08-25T07:37:50.274Z,86.10
2022-08-25T07:38:52.137Z,85.88
2022-08-25T07:39:54.017Z,86.08
2022-08-25T07:41:03.526Z,86.27
2022-08-25T07:42:12.246Z,86.97
2022-08-25T07:43:14.133Z,86.65
2022-08-25T07:44:15.999Z,86.48
2022-08-25T07:45:20.956Z,86.52
2022-08-25T07:46:23.020Z,86.70
2022-08-25T07:47:24.815Z,85.05
2022-08-25T07:48:26.924Z,84.67
2022-08-25T07:49:35.674Z,85.15
2022-08-25T07:50:42.254Z,85.36
2022-08-25T07:52:04.271Z,85.49
2022-08-25T07:53:07.319Z,85.20
2022-08-25T07:54:09.470Z,85.60
2022-08-25T07:55:12.238Z,85.85
2022-08-25T07:56:19.804Z,85.24
2022-08-25T07:57:22.631Z,84.59
2022-08-25T07:58:24.561Z,84.72
2022-08-25T07:59:26.320Z,83.82
2022-08-25T08:00:30.459Z,84.06
2022-08-25T08:01:32.377Z,84.30
2022-08-25T08:02:35.510Z,84.97
2022-08-25T08:03:50.163Z,85.25
2022-08-25T08:04:53.733Z,85.80
2022-08-25T08:05:56.791Z,85.38
2022-08-25T08:06:58.614Z,85.50
2022-08-25T08:08:00.682Z,85.33
2022-08-25T08:09:03.290Z,85.08
2022-08-25T08:10:37.100Z,84.11
2022-08-25T08:11:30.401Z,84.51
2022-08-25T08:12:34.428Z,85.09
2022-08-25T08:13:41.215Z,85.53
2022-08-25T08:14:45.074Z,86.34
2022-08-25T08:15:48.576Z,85.50
2022-08-25T08:16:50.677Z,85.54
2022-08-25T08:17:52.646Z,83.76
2022-08-25T08:18:54.852Z,83.26
2022-08-25T08:19:57.215Z,83.57
2022-08-25T08:20:59.042Z,85.60
2022-08-25T08:22:02.386Z,85.85
2022-08-25T08:23:04.578Z,85.92
2022-08-25T08:24:14.893Z,85.79
2022-08-25T08:25:29.565Z,86.17
2022-08-25T08:26:57.678Z,86.15
2022-08-25T08:27:55.313Z,85.90
2022-08-25T08:28:57.214Z,85.44
2022-08-25T08:29:59.878Z,85.17
2022-08-25T08:31:02.747Z,85.18
2022-08-25T08:32:06.053Z,85.15
2022-08-25T08:33:19.620Z,85.02
2022-08-25T08:34:24.951Z,85.01
2022-08-25T08:35:27.078Z,85.20
2022-08-25T08:36:28.998Z,85.01
2022-08-25T08:37:32.283Z,85.01
2022-08-25T08:38:36.407Z,85.33
2022-08-25T08:39:38.827Z,85.36
2022-08-25T08:41:05.925Z,85.06
2022-08-25T08:42:19.940Z,85.38
2022-08-25T08:43:25.103Z,85.50
2022-08-25T08:44:38.211Z,85.93
2022-08-25T08:45:58.100Z,86.15
2022-08-25T08:47:11.497Z,86.21
2022-08-25T08:48:13.274Z,86.88
2022-08-25T08:49:27.673Z,86.72
2022-08-25T08:50:35.065Z,86.29
2022-08-25T08:51:43.956Z,86.04
2022-08-25T08:52:55.170Z,84.84
2022-08-25T08:54:00.292Z,84.79
2022-08-25T08:55:06.563Z,84.55
2022-08-25T08:56:31.812Z,85.53
2022-08-25T08:57:36.025Z,85.83
2022-08-25T08:58:50.394Z,86.42
2022-08-25T08:59:55.784Z,86.45
2022-08-25T09:01:02.089Z,86.55
2022-08-25T09:02:06.872Z,86.34
2022-08-25T09:03:39.748Z,86.15
2022-08-25T09:04:41.643Z,86.50
2022-08-25T09:05:48.663Z,86.35
2022-08-25T09:06:51.085Z,85.92
2022-08-25T09:07:58.304Z,85.44
2022-08-25T09:09:02.618Z,85.10
2022-08-25T09:10:10.424Z,84.48
2022-08-25T09:11:18.829Z,83.76
2022-08-25T09:12:31.880Z,84.28
2022-08-25T09:13:54.160Z,84.36
2022-08-25T09:15:01.665Z,84.16
2022-08-25T09:16:34.169Z,83.53
2022-08-25T09:17:56.639Z,84.17
2022-08-25T09:19:08.643Z,84.39
2022-08-25T09:20:18.631Z,84.91
2022-08-25T09:21:21.102Z,84.82
2022-08-25T09:22:35.910Z,84.69
2022-08-25T09:24:01.265Z,84.22
2022-08-25T09:25:52.628Z,84.05
2022-08-25T09:27:11.922Z,83.52
2022-08-25T09:28:21.291Z,83.64
2022-08-25T09:29:25.341Z,84.22
2022-08-25T09:30:28.287Z,83.50
2022-08-25T09:31:39.074Z,83.31
2022-08-25T09:32:52.352Z,85.00
2022-08-25T09:33:57.472Z,85.25
2022-08-25T09:34:59.959Z,83.90
2022-08-25T09:36:04.605Z,83.69
2022-08-25T09:37:08.299Z,84.19
2022-08-25T09:38:12.094Z,83.96
2022-08-25T09:39:14.162Z,83.60
2022-08-25T09:40:16.104Z,83.51
2022-08-25T09:41:19.517Z,83.40
2022-08-25T09:42:23.919Z,82.94
2022-08-25T09:43:37.256Z,83.54
2022-08-25T09:44:43.918Z,83.74
2022-08-25T09:45:48.953Z,83.75
2022-08-25T09:46:57.380Z,84.19
2022-08-25T09:47:59.231Z,84.24
2022-08-25T09:49:13.826Z,83.79
2022-08-25T09:50:20.370Z,84.76
2022-08-25T09:51:42.571Z,85.11
2022-08-25T09:52:46.189Z,82.77
2022-08-25T09:53:55.377Z,82.31
2022-08-25T09:54:58.204Z,82.84
2022-08-25T09:56:04.997Z,83.21
2022-08-25T09:57:08.722Z,83.25
2022-08-25T09:58:16.130Z,83.21
2022-08-25T09:59:19.737Z,83.65
2022-08-25T10:00:24.256Z,82.44
2022-08-25T10:01:26.123Z,82.15
2022-08-25T10:02:33.878Z,83.52
2022-08-25T10:03:54.214Z,83.05
2022-08-25T10:04:56.173Z,82.75
2022-08-25T10:05:58.113Z,83.09
2022-08-25T10:07:01.004Z,83.25
2022-08-25T10:08:05.214Z,81.38
2022-08-25T10:09:08.007Z,81.09
2022-08-25T10:10:23.218Z,80.61
2022-08-25T10:11:33.813Z,77.63
2022-08-25T10:12:42.753Z,76.91
2022-08-25T10:13:47.131Z,78.03
2022-08-25T10:14:49.150Z,78.90
2022-08-25T10:16:04.785Z,78.44
2022-08-25T10:17:29.552Z,77.38
2022-08-25T10:18:31.873Z,77.80
2022-08-25T10:19:34.102Z,78.12
2022-08-25T10:20:36.014Z,77.17
2022-08-25T10:21:44.640Z,77.11
2022-08-25T10:22:48.192Z,79.82
2022-08-25T10:23:52.981Z,77.35
2022-08-25T10:24:56.031Z,77.07
2022-08-25T10:26:03.540Z,76.57
2022-08-25T10:27:06.557Z,75.79
2022-08-25T10:28:14.208Z,75.69
2022-08-25T10:29:34.924Z,74.18
2022-08-25T10:30:45.309Z,75.80
2022-08-25T10:31:53.038Z,76.14
2022-08-25T10:33:01.778Z,75.92
2022-08-25T10:34:24.674Z,76.00
2022-08-25T10:35:46.733Z,76.88
2022-08-25T10:36:53.195Z,77.71
2022-08-25T10:38:00.628Z,76.98
2022-08-25T10:39:03.175Z,77.13
2022-08-25T10:40:23.336Z,77.18
2022-08-25T10:41:31.765Z,76.36
2022-08-25T10:42:53.846Z,77.00
2022-08-25T10:44:05.694Z,76.21
2022-08-25T10:45:25.809Z,76.75
2022-08-25T10:46:33.810Z,76.54
2022-08-25T10:47:51.605Z,76.27
2022-08-25T10:48:59.024Z,76.84
2022-08-25T10:50:09.153Z,77.15
2022-08-25T10:51:20.434Z,77.28
2022-08-25T10:52:25.476Z,77.14
2022-08-25T10:53:36.362Z,76.72
2022-08-25T10:54:52.986Z,76.82
2022-08-25T10:56:03.769Z,76.21
2022-08-25T10:57:21.765Z,75.43
2022-08-25T10:58:42.150Z,76.12
2022-08-25T10:59:58.117Z,75.48
2022-08-25T11:01:09.148Z,76.60
2022-08-25T11:02:16.737Z,76.44
2022-08-25T11:03:25.610Z,75.66
2022-08-25T11:04:40.420Z,74.85
2022-08-25T11:05:46.056Z,75.54
2022-08-25T11:07:13.879Z,75.01
2022-08-25T11:08:36.057Z,75.87
2022-08-25T11:09:40.515Z,76.50
2022-08-25T11:10:53.476Z,74.45
2022-08-25T11:12:01.394Z,73.98
2022-08-25T11:13:07.881Z,74.39
2022-08-25T11:14:18.583Z,73.22
2022-08-25T11:15:29.815Z,72.17
2022-08-25T11:16:37.323Z,72.15
2022-08-25T11:17:42.393Z,71.48
2022-08-25T11:18:50.774Z,70.28
2022-08-25T11:19:55.734Z,69.69
2022-08-25T11:20:58.621Z,71.61
2022-08-25T11:22:26.599Z,69.32
2022-08-25T11:23:43.590Z,67.87
2022-08-25T11:24:45.340Z,68.59
2022-08-25T11:25:57.677Z,69.83
2022-08-25T11:27:00.082Z,70.03
2022-08-25T11:28:20.891Z,69.06
2022-08-25T11:29:28.543Z,69.33
2022-08-25T11:30:32.578Z,69.94
2022-08-25T11:31:39.190Z,70.11
2022-08-25T11:32:45.994Z,70.67
2022-08-25T11:33:49.905Z,70.82
2022-08-25T11:34:53.010Z,70.33
2022-08-25T11:35:57.231Z,70.68
2022-08-25T11:37:04.314Z,71.20
2022-08-25T11:38:25.199Z,72.05
2022-08-25T11:39:34.849Z,71.28
2022-08-25T11:40:39.596Z,70.62
2022-08-25T11:41:49.563Z,70.94
2022-08-25T11:43:01.138Z,70.52
2022-08-25T11:44:02.910Z,69.65
2022-08-25T11:45:23.279Z,69.83
2022-08-25T11:46:40.342Z,69.72
2022-08-25T11:47:42.139Z,70.31
2022-08-25T11:49:02.971Z,68.91
2022-08-25T11:50:07.762Z,69.32
2022-08-25T11:51:30.912Z,67.89
2022-08-25T11:52:38.440Z,66.61
2022-08-25T11:53:44.293Z,66.37
2022-08-25T11:54:48.663Z,65.88
2022-08-25T11:55:52.498Z,65.90
2022-08-25T11:57:05.276Z,65.77
2022-08-25T11:58:22.481Z,65.87
2022-08-25T11:59:43.186Z,66.07
2022-08-25T12:00:45.061Z,65.37
2022-08-25T12:01:55.920Z,67.43
2022-08-25T12:03:01.395Z,63.21
2022-08-25T12:04:27.033Z,65.70
2022-08-25T12:05:41.628Z,64.46
2022-08-25T12:07:02.746Z,66.11
2022-08-25T12:08:26.442Z,67.16
2022-08-25T12:09:28.666Z,65.38
2022-08-25T12:10:51.951Z,67.07
2022-08-25T12:11:58.507Z,64.19
2022-08-25T12:13:08.130Z,66.56
2022-08-25T12:14:25.077Z,62.54
2022-08-25T12:15:42.136Z,64.05
2022-08-25T12:17:00.666Z,60.93
2022-08-25T12:18:08.515Z,62.64
2022-08-25T12:19:29.508Z,63.39
2022-08-25T12:20:50.650Z,63.39
2022-08-25T12:21:53.720Z,63.58
2022-08-25T12:22:57.532Z,64.17
2022-08-25T12:24:02.063Z,64.53
2022-08-25T12:25:09.221Z,63.91
2022-08-25T12:26:29.622Z,64.34
2022-08-25T12:27:33.879Z,65.05
2022-08-25T12:28:52.676Z,65.48
2022-08-25T12:30:15.953Z,64.35
2022-08-25T12:31:24.903Z,66.51
2022-08-25T12:32:57.400Z,66.85
2022-08-25T12:34:10.803Z,66.36
2022-08-25T12:35:23.312Z,64.40
2022-08-25T12:36:33.277Z,66.16
2022-08-25T12:37:36.033Z,63.17
2022-08-25T12:38:43.696Z,64.91
2022-08-25T12:39:50.181Z,65.90
2022-08-25T12:40:51.986Z,66.28
2022-08-25T12:41:56.562Z,65.66
2022-08-25T12:43:06.984Z,66.78
2022-08-25T12:44:16.062Z,66.57
2022-08-25T12:45:17.941Z,65.25
2022-08-25T12:46:29.914Z,65.25
2022-08-25T12:47:34.567Z,62.85
2022-08-25T12:48:36.317Z,65.03
2022-08-25T12:49:39.588Z,62.42
2022-08-25T12:50:50.627Z,63.96
2022-08-25T12:51:57.339Z,65.32
2022-08-25T12:53:07.753Z,64.12
2022-08-25T12:54:19.015Z,64.34
2022-08-25T12:55:26.483Z,64.47
2022-08-25T12:56:41.291Z,62.07
2022-08-25T12:57:59.044Z,64.15
2022-08-25T12:59:22.274Z,62.26
2022-08-25T13:00:37.738Z,63.10
2022-08-25T13:01:52.068Z,64.30
2022-08-25T13:03:14.276Z,63.99
2022-08-25T13:04:34.447Z,62.49
2022-08-25T13:05:51.490Z,62.55
2022-08-25T13:07:13.219Z,62.59
2022-08-25T13:08:33.720Z,61.90
2022-08-25T13:09:59.152Z,61.44
2022-08-25T13:11:20.362Z,61.91
2022-08-25T13:12:27.339Z,63.09
2022-08-25T13:13:36.464Z,61.83
2022-08-25T13:14:44.622Z,59.97
2022-08-25T13:15:48.806Z,61.29
2022-08-25T13:16:58.142Z,62.66
2022-08-25T13:18:17.680Z,62.75
2022-08-25T13:19:21.179Z,60.59
2022-08-25T13:20:24.115Z,60.39
2022-08-25T13:21:31.016Z,61.79
2022-08-25T13:22:33.397Z,61.17
2022-08-25T13:23:38.154Z,61.34
2022-08-25T13:24:41.881Z,61.18
2022-08-25T13:25:49.041Z,61.43
2022-08-25T13:26:53.702Z,60.80
2022-08-25T13:27:56.974Z,60.44
2022-08-25T13:29:09.448Z,62.01
2022-08-25T13:30:28.826Z,59.21
2022-08-25T13:31:31.303Z,61.04
2022-08-25T13:32:35.666Z,59.06
2022-08-25T13:33:37.759Z,59.43
2022-08-25T13:34:43.095Z,59.01
2022-08-25T13:36:12.060Z,60.99
2022-08-25T13:37:31.183Z,59.51
2022-08-25T13:38:33.314Z,58.25
2022-08-25T13:41:03.375Z,56.60
2022-08-25T13:42:16.401Z,57.10
2022-08-25T13:43:18.298Z,58.24
2022-08-25T13:44:31.187Z,58.85
2022-08-25T13:45:41.264Z,58.00
2022-08-25T13:46:45.565Z,58.62
2022-08-25T13:47:48.567Z,57.57
2022-08-25T13:49:06.143Z,58.18
2022-08-25T13:50:19.964Z,59.32
2022-08-25T13:51:24.056Z,58.28
2022-08-25T13:52:33.272Z,55.46
2022-08-25T13:53:35.388Z,56.83
2022-08-25T13:54:41.075Z,56.63
2022-08-25T13:55:52.336Z,57.16
2022-08-25T13:56:54.897Z,58.24
2022-08-25T13:58:01.458Z,57.86
2022-08-25T13:59:06.994Z,57.87
2022-08-25T14:00:12.188Z,57.89
2022-08-25T14:01:48.124Z,57.98
2022-08-25T14:02:51.450Z,59.28
2022-08-25T14:03:54.634Z,58.41
2022-08-25T14:04:56.539Z,58.80
2022-08-25T14:06:19.188Z,59.81
2022-08-25T14:07:27.216Z,60.38
2022-08-25T14:08:40.333Z,57.93
2022-08-25T14:09:53.843Z,60.37
2022-08-25T14:11:14.672Z,60.07